Time,TemperatureF,DewpointF,PressureIn,WindDirection,WindDirectionDegrees,WindSpeedMPH,WindSpeedGustMPH,Humidity,HourlyPrecipIn,Conditions,Clouds,dailyrainin,SoftwareType,DateUTC
2013-11-08 00:00:00,32.3,29.1,30.29,West,264,0.0,0.0,88,0.00,,,0.01,Wunderground v.1.15,2013-11-08 06:00:00,
2013-11-08 00:10:00,32.0,30.7,30.30,West,264,0.0,1.0,95,0.00,,,0.00,Wunderground v.1.15,2013-11-08 06:10:00,
2013-11-08 00:15:00,32.0,29.1,30.31,West,264,1.0,1.0,89,0.00,,,0.00,Wunderground v.1.15,2013-11-08 06:15:00,
2013-11-08 00:25:00,32.3,29.4,30.31,WSW,245,1.0,3.0,89,0.00,,,0.00,Wunderground v.1.15,2013-11-08 06:25:00,
2013-11-08 00:30:00,32.5,29.6,30.31,WSW,241,1.0,5.0,89,0.00,,,0.00,Wunderground v.1.15,2013-11-08 06:30:00,
2013-11-08 00:40:00,32.8,29.9,30.31,WSW,245,1.0,1.0,89,0.00,,,0.00,Wunderground v.1.15,2013-11-08 06:40:00,
2013-11-08 00:50:00,32.8,29.6,30.31,WSW,245,0.0,2.0,88,0.00,,,0.00,Wunderground v.1.15,2013-11-08 06:50:00,
2013-11-08 00:55:00,32.7,29.5,30.31,WSW,245,0.0,2.0,88,0.00,,,0.00,Wunderground v.1.15,2013-11-08 06:55:00,
2013-11-08 01:05:00,32.5,29.3,30.31,WSW,245,0.0,0.0,88,0.00,,,0.00,Wunderground v.1.15,2013-11-08 07:05:00,
2013-11-08 01:10:00,32.4,29.2,30.31,WSW,245,0.0,0.0,88,0.00,,,0.00,Wunderground v.1.15,2013-11-08 07:10:00,
2013-11-08 01:20:00,32.3,29.1,30.32,WSW,245,1.0,1.0,88,0.00,,,0.00,Wunderground v.1.15,2013-11-08 07:20:00,
2013-11-08 01:25:00,32.1,28.9,30.31,WSW,245,0.0,1.0,88,0.00,,,0.00,Wunderground v.1.15,2013-11-08 07:25:00,
2013-11-08 01:35:00,31.8,28.7,30.31,WSW,245,0.0,0.0,88,0.00,,,0.00,Wunderground v.1.15,2013-11-08 07:35:00,
2013-11-08 01:40:00,31.7,28.6,30.31,WSW,245,0.0,0.0,88,0.00,,,0.00,Wunderground v.1.15,2013-11-08 07:40:00,
2013-11-08 01:50:00,31.4,28.3,30.31,WSW,245,0.0,0.0,88,0.00,,,0.00,Wunderground v.1.15,2013-11-08 07:50:00,
2013-11-08 02:00:00,31.1,28.0,30.31,WSW,245,0.0,0.0,88,0.00,,,0.00,Wunderground v.1.15,2013-11-08 08:00:00,
2013-11-08 02:10:00,30.7,27.8,30.31,WSW,245,0.0,0.0,89,0.00,,,0.00,Wunderground v.1.15,2013-11-08 08:10:00,
2013-11-08 02:20:00,30.3,27.4,30.31,WSW,245,0.0,0.0,89,0.00,,,0.00,Wunderground v.1.15,2013-11-08 08:20:00,
2013-11-08 02:30:00,30.1,27.3,30.31,WSW,245,0.0,0.0,89,0.00,,,0.00,Wunderground v.1.15,2013-11-08 08:30:00,
2013-11-08 02:35:00,29.9,27.1,30.30,WSW,245,0.0,0.0,89,0.00,,,0.00,Wunderground v.1.15,2013-11-08 08:35:00,
2013-11-08 02:45:00,29.6,27.0,30.31,WSW,245,0.0,0.0,90,0.00,,,0.00,Wunderground v.1.15,2013-11-08 08:45:00,
2013-11-08 02:50:00,29.4,26.8,30.31,WSW,245,0.0,0.0,90,0.00,,,0.00,Wunderground v.1.15,2013-11-08 08:50:00,
2013-11-08 03:00:00,29.2,26.6,30.31,WSW,245,0.0,0.0,90,0.00,,,0.00,Wunderground v.1.15,2013-11-08 09:00:00,
2013-11-08 03:05:00,29.0,26.7,30.31,WSW,245,0.0,0.0,91,0.00,,,0.00,Wunderground v.1.15,2013-11-08 09:05:00,
2013-11-08 03:15:00,29.0,26.7,30.31,WSW,245,0.0,0.0,91,0.00,,,0.00,Wunderground v.1.15,2013-11-08 09:15:00,
2013-11-08 03:25:00,29.0,27.0,30.32,WSW,245,0.0,0.0,92,0.00,,,0.00,Wunderground v.1.15,2013-11-08 09:25:00,
2013-11-08 03:30:00,29.1,27.1,30.32,WSW,245,0.0,0.0,92,0.00,,,0.00,Wunderground v.1.15,2013-11-08 09:30:00,
2013-11-08 03:40:00,29.6,27.6,30.32,WSW,245,0.0,0.0,92,0.00,,,0.00,Wunderground v.1.15,2013-11-08 09:40:00,
2013-11-08 03:45:00,29.8,27.8,30.32,WSW,245,0.0,0.0,92,0.00,,,0.00,Wunderground v.1.15,2013-11-08 09:45:00,
2013-11-08 03:55:00,30.2,28.2,30.33,WSW,245,0.0,0.0,92,0.00,,,0.00,Wunderground v.1.15,2013-11-08 09:55:00,
2013-11-08 04:05:00,30.2,27.9,30.33,WSW,246,0.0,0.0,91,0.00,,,0.00,Wunderground v.1.15,2013-11-08 10:05:00,
2013-11-08 04:10:00,30.3,28.0,30.33,WSW,246,0.0,0.0,91,0.00,,,0.00,Wunderground v.1.15,2013-11-08 10:10:00,
2013-11-08 04:20:00,30.2,27.9,30.32,WSW,246,0.0,0.0,91,0.00,,,0.00,Wunderground v.1.15,2013-11-08 10:20:00,
2013-11-08 04:30:00,29.8,27.2,30.32,WSW,246,0.0,0.0,90,0.00,,,0.00,Wunderground v.1.15,2013-11-08 10:30:00,
2013-11-08 04:35:00,29.7,27.1,30.33,WSW,246,0.0,0.0,90,0.00,,,0.00,Wunderground v.1.15,2013-11-08 10:35:00,
2013-11-08 04:45:00,29.4,26.8,30.33,WSW,246,0.0,0.0,90,0.00,,,0.00,Wunderground v.1.15,2013-11-08 10:45:00,
2013-11-08 04:55:00,29.2,26.9,30.33,WSW,246,0.0,0.0,91,0.00,,,0.00,Wunderground v.1.15,2013-11-08 10:55:00,
2013-11-08 05:00:00,29.0,26.7,30.33,WSW,246,0.0,0.0,91,0.00,,,0.00,Wunderground v.1.15,2013-11-08 11:00:00,
2013-11-08 05:10:00,28.8,26.5,30.33,WSW,246,0.0,0.0,91,0.00,,,0.00,Wunderground v.1.15,2013-11-08 11:10:00,
2013-11-08 05:15:00,28.7,26.4,30.33,WSW,246,0.0,0.0,91,0.00,,,0.00,Wunderground v.1.15,2013-11-08 11:15:00,
2013-11-08 05:25:00,28.4,26.4,30.33,WSW,246,0.0,0.0,92,0.00,,,0.00,Wunderground v.1.15,2013-11-08 11:25:00,
2013-11-08 05:35:00,28.3,26.3,30.33,WSW,246,0.0,0.0,92,0.00,,,0.00,Wunderground v.1.15,2013-11-08 11:35:00,
2013-11-08 05:40:00,28.2,26.2,30.33,WSW,246,0.0,0.0,92,0.00,,,0.00,Wunderground v.1.15,2013-11-08 11:40:00,
2013-11-08 05:50:00,28.0,26.0,30.33,WSW,246,0.0,0.0,92,0.00,,,0.00,Wunderground v.1.15,2013-11-08 11:50:00,
2013-11-08 06:00:00,27.9,25.9,30.33,WSW,246,0.0,0.0,92,0.00,,,0.00,Wunderground v.1.15,2013-11-08 12:00:00,
2013-11-08 06:05:00,27.8,26.0,30.34,WSW,246,0.0,0.0,93,0.00,,,0.00,Wunderground v.1.15,2013-11-08 12:05:00,
2013-11-08 06:15:00,27.9,26.1,30.34,WSW,246,0.0,0.0,93,0.00,,,0.00,Wunderground v.1.15,2013-11-08 12:15:00,
2013-11-08 06:20:00,27.9,26.1,30.34,WSW,246,0.0,0.0,93,0.00,,,0.00,Wunderground v.1.15,2013-11-08 12:20:00,
2013-11-08 06:30:00,28.3,26.8,30.34,WSW,246,0.0,0.0,94,0.00,,,0.00,Wunderground v.1.15,2013-11-08 12:30:00,
2013-11-08 06:35:00,28.5,27.0,30.34,WSW,246,0.0,0.0,94,0.00,,,0.00,Wunderground v.1.15,2013-11-08 12:35:00,
2013-11-08 06:45:00,28.7,27.2,30.35,WSW,246,0.0,0.0,94,0.00,,,0.00,Wunderground v.1.15,2013-11-08 12:45:00,
2013-11-08 06:50:00,28.7,27.2,30.35,WSW,246,0.0,0.0,94,0.00,,,0.00,Wunderground v.1.15,2013-11-08 12:50:00,
2013-11-08 07:00:00,28.7,27.2,30.35,WSW,246,0.0,0.0,94,0.00,,,0.00,Wunderground v.1.15,2013-11-08 13:00:00,
2013-11-08 07:05:00,28.7,27.2,30.35,WSW,246,0.0,0.0,94,0.00,,,0.00,Wunderground v.1.15,2013-11-08 13:05:00,
2013-11-08 07:15:00,28.9,27.4,30.35,WSW,246,0.0,0.0,94,0.00,,,0.00,Wunderground v.1.15,2013-11-08 13:15:00,
2013-11-08 07:20:00,29.2,27.9,30.36,WSW,246,0.0,0.0,95,0.00,,,0.00,Wunderground v.1.15,2013-11-08 13:20:00,
2013-11-08 07:30:00,29.9,28.6,30.36,WSW,246,0.0,0.0,95,0.00,,,0.00,Wunderground v.1.15,2013-11-08 13:30:00,
2013-11-08 07:35:00,30.3,29.0,30.36,WSW,246,0.0,0.0,95,0.00,,,0.00,Wunderground v.1.15,2013-11-08 13:35:00,
2013-11-08 07:45:00,31.0,29.7,30.36,WSW,246,0.0,0.0,95,0.00,,,0.00,Wunderground v.1.15,2013-11-08 13:45:00,
2013-11-08 07:55:00,31.8,30.5,30.36,WSW,246,0.0,0.0,95,0.00,,,0.00,Wunderground v.1.15,2013-11-08 13:55:00,
2013-11-08 08:05:00,32.7,31.4,30.36,WSW,246,0.0,1.0,95,0.00,,,0.00,Wunderground v.1.15,2013-11-08 14:05:00,
2013-11-08 08:10:00,33.2,31.9,30.36,WSW,246,0.0,1.0,95,0.00,,,0.00,Wunderground v.1.15,2013-11-08 14:10:00,
2013-11-08 08:20:00,34.0,32.2,30.36,WSW,246,0.0,0.0,93,0.00,,,0.00,Wunderground v.1.15,2013-11-08 14:20:00,
2013-11-08 08:25:00,34.4,32.0,30.36,WSW,246,1.0,1.0,91,0.00,,,0.00,Wunderground v.1.15,2013-11-08 14:25:00,
2013-11-08 08:35:00,35.3,32.1,30.36,SW,219,1.0,2.0,88,0.00,,,0.00,Wunderground v.1.15,2013-11-08 14:35:00,
2013-11-08 08:40:00,35.7,32.2,30.36,SW,219,1.0,1.0,87,0.00,,,0.00,Wunderground v.1.15,2013-11-08 14:40:00,
2013-11-08 08:50:00,36.8,33.0,30.35,SW,219,0.0,1.0,86,0.00,,,0.00,Wunderground v.1.15,2013-11-08 14:50:00,
2013-11-08 08:55:00,37.3,32.9,30.35,SW,219,1.0,1.0,84,0.00,,,0.00,Wunderground v.1.15,2013-11-08 14:55:00,
2013-11-08 09:05:00,38.4,33.4,30.34,SW,219,1.0,2.0,82,0.00,,,0.00,Wunderground v.1.15,2013-11-08 15:05:00,
2013-11-08 09:15:00,39.3,33.6,30.34,SW,219,1.0,1.0,80,0.00,,,0.00,Wunderground v.1.15,2013-11-08 15:15:00,
2013-11-08 09:20:00,40.0,34.0,30.33,SSE,165,1.0,1.0,79,0.00,,,0.00,Wunderground v.1.15,2013-11-08 15:20:00,
2013-11-08 09:30:00,40.9,34.2,30.34,SSE,160,3.0,3.0,77,0.00,,,0.00,Wunderground v.1.15,2013-11-08 15:30:00,
2013-11-08 09:40:00,41.5,34.2,30.33,SSE,160,2.0,2.0,75,0.00,,,0.00,Wunderground v.1.15,2013-11-08 15:40:00,
2013-11-08 09:45:00,42.0,34.3,30.33,SSE,158,3.0,7.0,74,0.00,,,0.00,Wunderground v.1.15,2013-11-08 15:45:00,
2013-11-08 09:55:00,42.7,33.6,30.34,SW,221,3.0,4.0,70,0.00,,,0.00,Wunderground v.1.15,2013-11-08 15:55:00,
2013-11-08 10:00:00,43.2,33.7,30.34,WSW,241,2.0,3.0,69,0.00,,,0.00,Wunderground v.1.15,2013-11-08 16:00:00,
2013-11-08 10:10:00,44.1,35.3,30.34,SW,218,3.0,3.0,71,0.00,,,0.00,Wunderground v.1.15,2013-11-08 16:10:00,
2013-11-08 10:20:00,45.2,34.5,30.33,SSE,160,2.0,2.0,66,0.00,,,0.00,Wunderground v.1.15,2013-11-08 16:20:00,
2013-11-08 10:25:00,45.9,34.8,30.33,SSE,155,2.0,2.0,65,0.00,,,0.00,Wunderground v.1.15,2013-11-08 16:25:00,
2013-11-08 10:40:00,45.9,34.4,30.33,SW,221,4.0,4.0,64,0.00,,,0.00,Wunderground v.1.15,2013-11-08 16:40:00,
2013-11-08 10:45:00,46.1,34.6,30.32,SSE,161,4.0,4.0,64,0.00,,,0.00,Wunderground v.1.15,2013-11-08 16:45:00,
2013-11-08 10:55:00,46.5,35.0,30.32,South,191,3.0,5.0,64,0.00,,,0.00,Wunderground v.1.15,2013-11-08 16:55:00,
2013-11-08 11:00:00,47.0,35.0,30.32,South,169,3.0,3.0,63,0.00,,,0.00,Wunderground v.1.15,2013-11-08 17:00:00,
2013-11-08 11:10:00,48.1,35.3,30.31,SSE,148,2.0,2.0,61,0.00,,,0.00,Wunderground v.1.15,2013-11-08 17:10:00,
2013-11-08 11:20:00,48.1,35.3,30.30,SSW,198,3.0,3.0,61,0.00,,,0.00,Wunderground v.1.15,2013-11-08 17:20:00,
2013-11-08 11:25:00,48.4,35.1,30.30,SW,216,1.0,3.0,60,0.00,,,0.00,Wunderground v.1.15,2013-11-08 17:25:00,
2013-11-08 11:35:00,48.2,33.7,30.30,SSW,192,3.0,5.0,57,0.00,,,0.00,Wunderground v.1.15,2013-11-08 17:35:00,
2013-11-08 11:40:00,48.0,33.9,30.29,South,173,3.0,3.0,58,0.00,,,0.00,Wunderground v.1.15,2013-11-08 17:40:00,
2013-11-08 11:50:00,48.0,33.9,30.29,SW,231,3.0,3.0,58,0.00,,,0.00,Wunderground v.1.15,2013-11-08 17:50:00,
2013-11-08 12:00:00,48.5,34.4,30.28,SSE,162,3.0,3.0,58,0.00,,,0.00,Wunderground v.1.15,2013-11-08 18:00:00,
2013-11-08 12:05:00,48.9,34.8,30.27,SSE,152,3.0,7.0,58,0.00,,,0.00,Wunderground v.1.15,2013-11-08 18:05:00,
2013-11-08 12:15:00,48.7,34.1,30.27,SSW,200,4.0,7.0,57,0.00,,,0.00,Wunderground v.1.15,2013-11-08 18:15:00,
2013-11-08 12:20:00,48.7,34.1,30.26,SSE,161,4.0,4.0,57,0.00,,,0.00,Wunderground v.1.15,2013-11-08 18:20:00,
2013-11-08 12:30:00,49.5,31.6,30.25,South,186,4.0,4.0,50,0.00,,,0.00,Wunderground v.1.15,2013-11-08 18:30:00,
2013-11-08 12:40:00,49.5,32.1,30.25,SE,138,4.0,7.0,51,0.00,,,0.00,Wunderground v.1.15,2013-11-08 18:40:00,
2013-11-08 12:45:00,50.1,33.6,30.25,SSE,165,4.0,7.0,53,0.00,,,0.00,Wunderground v.1.15,2013-11-08 18:45:00,
2013-11-08 12:55:00,50.8,32.8,30.24,SSE,148,5.0,5.0,50,0.00,,,0.00,Wunderground v.1.15,2013-11-08 18:55:00,
2013-11-08 13:00:00,50.1,31.2,30.24,WSW,242,4.0,5.0,48,0.00,,,0.00,Wunderground v.1.15,2013-11-08 19:00:00,
2013-11-08 13:10:00,49.4,32.0,30.23,SE,145,4.0,7.0,51,0.00,,,0.00,Wunderground v.1.15,2013-11-08 19:10:00,
2013-11-08 13:20:00,49.5,32.6,30.23,WSW,243,3.0,10.0,52,0.00,,,0.00,Wunderground v.1.15,2013-11-08 19:20:00,
2013-11-08 13:25:00,49.5,32.1,30.22,SSW,200,3.0,10.0,51,0.00,,,0.00,Wunderground v.1.15,2013-11-08 19:25:00,
2013-11-08 13:35:00,49.4,32.0,30.22,SE,135,4.0,5.0,51,0.00,,,0.00,Wunderground v.1.15,2013-11-08 19:35:00,
2013-11-08 13:45:00,49.4,32.5,30.22,SSW,210,4.0,6.0,52,0.00,,,0.00,Wunderground v.1.15,2013-11-08 19:45:00,
2013-11-08 13:50:00,49.6,32.7,30.21,SSE,152,4.0,6.0,52,0.00,,,0.00,Wunderground v.1.15,2013-11-08 19:50:00,
2013-11-08 14:00:00,49.7,32.3,30.21,SSW,204,5.0,5.0,51,0.00,,,0.00,Wunderground v.1.15,2013-11-08 20:00:00,
2013-11-08 14:05:00,49.6,33.2,30.20,SSE,147,5.0,9.0,53,0.00,,,0.00,Wunderground v.1.15,2013-11-08 20:05:00,
2013-11-08 14:15:00,49.6,33.6,30.20,SSW,192,4.0,4.0,54,0.00,,,0.00,Wunderground v.1.15,2013-11-08 20:15:00,
2013-11-08 14:25:00,49.2,32.3,30.20,South,190,5.0,8.0,52,0.00,,,0.00,Wunderground v.1.15,2013-11-08 20:25:00,
2013-11-08 14:30:00,49.1,33.2,30.19,SSE,163,6.0,6.0,54,0.00,,,0.00,Wunderground v.1.15,2013-11-08 20:30:00,
2013-11-08 14:40:00,49.5,34.0,30.18,SSW,210,5.0,5.0,55,0.00,,,0.00,Wunderground v.1.15,2013-11-08 20:40:00,
2013-11-08 14:45:00,49.6,33.6,30.18,SSE,151,5.0,6.0,54,0.00,,,0.00,Wunderground v.1.15,2013-11-08 20:45:00,
2013-11-08 14:55:00,48.8,33.3,30.18,SSW,193,5.0,10.0,55,0.00,,,0.00,Wunderground v.1.15,2013-11-08 20:55:00,
2013-11-08 15:05:00,48.4,33.9,30.17,SSE,155,5.0,13.0,57,0.00,,,0.00,Wunderground v.1.15,2013-11-08 21:05:00,
2013-11-08 15:15:00,48.2,34.1,30.17,SSW,200,4.0,5.0,58,0.00,,,0.00,Wunderground v.1.15,2013-11-08 21:15:00,
2013-11-08 15:20:00,48.2,34.1,30.17,SW,216,3.0,3.0,58,0.00,,,0.00,Wunderground v.1.15,2013-11-08 21:20:00,
2013-11-08 15:30:00,48.1,34.9,30.17,SSW,205,5.0,5.0,60,0.00,,,0.00,Wunderground v.1.15,2013-11-08 21:30:00,
2013-11-08 15:35:00,48.2,34.5,30.16,SSE,148,5.0,5.0,59,0.00,,,0.00,Wunderground v.1.15,2013-11-08 21:35:00,
2013-11-08 15:45:00,48.1,34.0,30.15,SSE,153,5.0,6.0,58,0.00,,,0.00,Wunderground v.1.15,2013-11-08 21:45:00,
2013-11-08 15:55:00,47.7,34.1,30.14,SSW,208,6.0,6.0,59,0.00,,,0.00,Wunderground v.1.15,2013-11-08 21:55:00,
2013-11-08 16:00:00,47.6,34.4,30.14,SSE,165,5.0,9.0,60,0.00,,,0.00,Wunderground v.1.15,2013-11-08 22:00:00,
2013-11-08 16:10:00,47.6,34.8,30.13,South,176,7.0,10.0,61,0.00,,,0.00,Wunderground v.1.15,2013-11-08 22:10:00,
2013-11-08 16:20:00,47.6,35.2,30.13,SSE,155,6.0,6.0,62,0.00,,,0.00,Wunderground v.1.15,2013-11-08 22:20:00,
2013-11-08 16:25:00,47.4,35.0,30.13,SSE,160,5.0,9.0,62,0.00,,,0.00,Wunderground v.1.15,2013-11-08 22:25:00,
2013-11-08 16:35:00,47.3,34.9,30.12,SSE,154,6.0,8.0,62,0.00,,,0.00,Wunderground v.1.15,2013-11-08 22:35:00,
2013-11-08 16:40:00,47.2,35.2,30.12,SE,143,7.0,12.0,63,0.00,,,0.00,Wunderground v.1.15,2013-11-08 22:40:00,
2013-11-08 16:50:00,46.8,34.9,30.12,SSE,148,6.0,6.0,63,0.00,,,0.00,Wunderground v.1.15,2013-11-08 22:50:00,
2013-11-08 16:55:00,46.7,35.2,30.11,SE,146,6.0,7.0,64,0.00,,,0.00,Wunderground v.1.15,2013-11-08 22:55:00,
2013-11-08 17:05:00,46.5,35.4,30.12,SSE,165,7.0,7.0,65,0.00,,,0.00,Wunderground v.1.15,2013-11-08 23:05:00,
2013-11-08 17:15:00,46.3,35.6,30.11,SE,145,6.0,9.0,66,0.00,,,0.00,Wunderground v.1.15,2013-11-08 23:15:00,
2013-11-08 17:20:00,46.2,35.5,30.11,SSE,149,7.0,7.0,66,0.00,,,0.00,Wunderground v.1.15,2013-11-08 23:20:00,
2013-11-08 17:30:00,46.0,35.3,30.10,SSE,150,7.0,10.0,66,0.00,,,0.00,Wunderground v.1.15,2013-11-08 23:30:00,
2013-11-08 17:40:00,45.7,35.4,30.09,SSW,198,7.0,7.0,67,0.00,,,0.00,Wunderground v.1.15,2013-11-08 23:40:00,
2013-11-08 17:45:00,45.7,35.4,30.09,South,169,7.0,7.0,67,0.00,,,0.00,Wunderground v.1.15,2013-11-08 23:45:00,
2013-11-08 17:55:00,45.7,35.4,30.09,SSE,157,7.0,7.0,67,0.00,,,0.00,Wunderground v.1.15,2013-11-08 23:55:00,
2013-11-08 18:00:00,45.8,35.5,30.08,SSE,153,9.0,9.0,67,0.00,,,0.00,Wunderground v.1.15,2013-11-09 00:00:00,
2013-11-08 18:10:00,45.9,35.6,30.08,SSE,153,8.0,9.0,67,0.00,,,0.00,Wunderground v.1.15,2013-11-09 00:10:00,
2013-11-08 18:20:00,45.8,35.5,30.06,SSE,153,9.0,9.0,67,0.00,,,0.00,Wunderground v.1.15,2013-11-09 00:20:00,
2013-11-08 18:25:00,45.8,35.5,30.06,SE,141,10.0,10.0,67,0.00,,,0.00,Wunderground v.1.15,2013-11-09 00:25:00,
2013-11-08 18:35:00,45.6,35.6,30.06,South,178,10.0,10.0,68,0.00,,,0.00,Wunderground v.1.15,2013-11-09 00:35:00,
2013-11-08 18:40:00,45.4,35.8,30.06,SSE,150,10.0,13.0,69,0.00,,,0.00,Wunderground v.1.15,2013-11-09 00:40:00,
2013-11-08 18:50:00,45.1,35.9,30.06,South,178,8.0,10.0,70,0.00,,,0.00,Wunderground v.1.15,2013-11-09 00:50:00,
2013-11-08 19:00:00,44.9,35.7,30.05,SE,132,8.0,13.0,70,0.00,,,0.00,Wunderground v.1.15,2013-11-09 01:00:00,
2013-11-08 19:05:00,45.0,36.2,30.06,SSW,211,9.0,13.0,71,0.00,,,0.00,Wunderground v.1.15,2013-11-09 01:05:00,
2013-11-08 19:15:00,45.0,36.2,30.06,SSE,150,9.0,11.0,71,0.00,,,0.00,Wunderground v.1.15,2013-11-09 01:15:00,
2013-11-08 19:25:00,44.8,36.3,30.07,SE,146,7.0,9.0,72,0.00,,,0.00,Wunderground v.1.15,2013-11-09 01:25:00,
2013-11-08 19:30:00,44.7,36.2,30.08,SSE,161,8.0,8.0,72,0.00,,,0.00,Wunderground v.1.15,2013-11-09 01:30:00,
2013-11-08 19:40:00,44.5,36.4,30.07,South,173,5.0,5.0,73,0.00,,,0.00,Wunderground v.1.15,2013-11-09 01:40:00,
2013-11-08 19:45:00,44.4,36.3,30.06,SSE,153,5.0,6.0,73,0.00,,,0.00,Wunderground v.1.15,2013-11-09 01:45:00,
2013-11-08 19:55:00,44.7,36.2,30.07,SSE,162,7.0,8.0,72,0.00,,,0.00,Wunderground v.1.15,2013-11-09 01:55:00,
2013-11-08 20:05:00,44.8,36.3,30.07,SSE,161,4.0,5.0,72,0.00,,,0.00,Wunderground v.1.15,2013-11-09 02:05:00,
2013-11-08 20:10:00,44.9,36.4,30.06,SSE,166,4.0,4.0,72,0.00,,,0.00,Wunderground v.1.15,2013-11-09 02:10:00,
2013-11-08 20:20:00,45.1,36.3,30.06,SSE,152,4.0,7.0,71,0.00,,,0.00,Wunderground v.1.15,2013-11-09 02:20:00,
2013-11-08 20:25:00,45.1,36.3,30.05,South,180,4.0,7.0,71,0.00,,,0.00,Wunderground v.1.15,2013-11-09 02:25:00,
2013-11-08 20:35:00,45.1,36.3,30.05,South,174,4.0,4.0,71,0.00,,,0.00,Wunderground v.1.15,2013-11-09 02:35:00,
2013-11-08 20:45:00,45.5,36.3,30.05,SSE,159,4.0,5.0,70,0.00,,,0.00,Wunderground v.1.15,2013-11-09 02:45:00,
2013-11-08 20:50:00,45.6,36.4,30.05,SSE,153,4.0,7.0,70,0.00,,,0.00,Wunderground v.1.15,2013-11-09 02:50:00,
2013-11-08 21:00:00,45.8,36.2,30.06,SSE,161,4.0,6.0,69,0.00,,,0.00,Wunderground v.1.15,2013-11-09 03:00:00,
2013-11-08 21:05:00,46.0,36.0,30.06,SW,228,4.0,6.0,68,0.00,,,0.00,Wunderground v.1.15,2013-11-09 03:05:00,
2013-11-08 21:15:00,46.1,36.1,30.06,SSW,194,4.0,4.0,68,0.00,,,0.00,Wunderground v.1.15,2013-11-09 03:15:00,
2013-11-08 21:25:00,46.1,36.1,30.05,SSW,195,4.0,7.0,68,0.00,,,0.00,Wunderground v.1.15,2013-11-09 03:25:00,
2013-11-08 21:30:00,46.1,36.1,30.05,SW,217,4.0,4.0,68,0.00,,,0.00,Wunderground v.1.15,2013-11-09 03:30:00,
2013-11-08 21:40:00,46.4,36.0,30.04,SSE,148,4.0,4.0,67,0.00,,,0.00,Wunderground v.1.15,2013-11-09 03:40:00,
2013-11-08 21:45:00,46.5,36.1,30.03,SSW,194,5.0,5.0,67,0.00,,,0.00,Wunderground v.1.15,2013-11-09 03:45:00,
2013-11-08 21:55:00,46.7,35.9,30.03,SW,218,5.0,5.0,66,0.00,,,0.00,Wunderground v.1.15,2013-11-09 03:55:00,
2013-11-08 22:05:00,47.2,36.0,30.02,SSE,150,5.0,6.0,65,0.00,,,0.00,Wunderground v.1.15,2013-11-09 04:05:00,
2013-11-08 22:10:00,47.4,36.2,30.02,SSE,168,5.0,8.0,65,0.00,,,0.00,Wunderground v.1.15,2013-11-09 04:10:00,
2013-11-08 22:20:00,47.6,36.0,30.01,SW,217,5.0,5.0,64,0.00,,,0.00,Wunderground v.1.15,2013-11-09 04:20:00,
2013-11-08 22:30:00,47.8,36.2,30.00,SW,219,6.0,7.0,64,0.00,,,0.00,Wunderground v.1.15,2013-11-09 04:30:00,
2013-11-08 22:35:00,47.8,36.2,30.00,WSW,244,6.0,7.0,64,0.00,,,0.00,Wunderground v.1.15,2013-11-09 04:35:00,
2013-11-08 22:45:00,47.7,36.1,30.00,SW,219,6.0,6.0,64,0.00,,,0.00,Wunderground v.1.15,2013-11-09 04:45:00,
2013-11-08 22:55:00,47.5,35.9,29.99,SSW,209,5.0,8.0,64,0.00,,,0.00,Wunderground v.1.15,2013-11-09 04:55:00,
2013-11-08 23:00:00,47.4,36.2,29.99,SW,217,5.0,7.0,65,0.00,,,0.00,Wunderground v.1.15,2013-11-09 05:00:00,
2013-11-08 23:05:00,47.3,36.1,29.99,WSW,245,5.0,7.0,65,0.00,,,0.00,Wunderground v.1.15,2013-11-09 05:05:00,
2013-11-08 23:10:00,47.2,36.4,29.99,SSW,207,5.0,5.0,66,0.00,,,0.00,Wunderground v.1.15,2013-11-09 05:10:00,
2013-11-08 23:15:00,47.2,36.4,29.99,SW,233,5.0,5.0,66,0.00,,,0.00,Wunderground v.1.15,2013-11-09 05:15:00,
2013-11-08 23:20:00,47.1,36.3,29.98,SSW,207,5.0,5.0,66,0.00,,,0.00,Wunderground v.1.15,2013-11-09 05:20:00,
2013-11-08 23:30:00,47.1,36.3,29.97,SSE,150,6.0,6.0,66,0.00,,,0.00,Wunderground v.1.15,2013-11-09 05:30:00,
2013-11-08 23:40:00,47.1,36.7,29.97,SW,218,6.0,6.0,67,0.00,,,0.00,Wunderground v.1.15,2013-11-09 05:40:00,
2013-11-08 23:50:00,47.1,36.7,29.96,SW,223,6.0,7.0,67,0.00,,,0.00,Wunderground v.1.15,2013-11-09 05:50:00,
2013-11-08 23:55:00,47.1,36.7,29.96,SE,135,6.0,7.0,67,0.00,,,0.00,Wunderground v.1.15,2013-11-09 05:55:00,